CFG2253 EDDF-LEPA
Flight info
| Callsign | CFG2253 |
|---|---|
| Flight time | N/A |
| Altitude | 29000 |
| Route | ANEKI2L/18 ANEKI Y163 HERBI/N0466F390 Y164 MOPAN DCT LUTIX DCT BENOT DCT NEMOS DCT GEVEA DCT INCUS DCT BALSI DCT RETNO DCT TUPOX DCT MTG DCT DIVKO DCT VATIR DCT PIVUS N852 VERSO L129 LUNIK |
| Aircraft | A339/H-SADE1E2E3GHIJ3J5M1P2RWXY/LB2D1 |
Departure
| Time | 2026-05-07 10:11 |
|---|---|
| Airport | Frankfurt Main Airport (EDDF) |
Arrival
| Time | N/A |
|---|---|
| Airport | Palma de Mallorca Airport (LEPA) |
| Time | Latitude | Longitude | Altitude | Speed | Heading |
|---|---|---|---|---|---|
| 2026-05-07 09:45 | 50.04595 | 8.57055 | 354 ft | 0 kts | 60° |
| 2026-05-07 09:54 | 50.04590 | 8.57041 | 354 ft | 2 kts | 59° |
| 2026-05-07 09:55 | 50.04582 | 8.57019 | 364 ft | 2 kts | 60° |
| 2026-05-07 09:55 | 50.04572 | 8.56997 | 354 ft | 2 kts | 67° |
| 2026-05-07 09:55 | 50.04566 | 8.56974 | 364 ft | 2 kts | 356° |
| 2026-05-07 09:55 | 50.04563 | 8.56973 | 364 ft | 2 kts | 119° |
| 2026-05-07 09:56 | 50.04564 | 8.56960 | 361 ft | 2 kts | 320° |
| 2026-05-07 09:56 | 50.04588 | 8.56907 | 359 ft | 0 kts | 186° |
| 2026-05-07 09:56 | 50.04588 | 8.56906 | 359 ft | 0 kts | 189° |
| 2026-05-07 10:04 | 50.04587 | 8.56906 | 356 ft | 0 kts | 189° |
| 2026-05-07 10:04 | 50.04586 | 8.56906 | 356 ft | 0 kts | 189° |
| 2026-05-07 10:04 | 50.04572 | 8.56904 | 362 ft | 3 kts | 186° |
| 2026-05-07 10:04 | 50.04539 | 8.56900 | 358 ft | 4 kts | 184° |
| 2026-05-07 10:05 | 50.04503 | 8.56882 | 358 ft | 13 kts | 201° |
| 2026-05-07 10:05 | 50.04439 | 8.56771 | 365 ft | 14 kts | 243° |
| 2026-05-07 10:05 | 50.04402 | 8.56630 | 361 ft | 17 kts | 251° |
| 2026-05-07 10:05 | 50.04331 | 8.56318 | 358 ft | 36 kts | 250° |
| 2026-05-07 10:06 | 50.04272 | 8.56072 | 359 ft | 24 kts | 249° |
| 2026-05-07 10:06 | 50.04216 | 8.55836 | 362 ft | 23 kts | 250° |
| 2026-05-07 10:06 | 50.04161 | 8.55603 | 368 ft | 22 kts | 250° |
| 2026-05-07 10:06 | 50.04106 | 8.55377 | 368 ft | 23 kts | 249° |
| 2026-05-07 10:07 | 50.04052 | 8.55151 | 371 ft | 22 kts | 250° |
| 2026-05-07 10:07 | 50.03998 | 8.54915 | 367 ft | 24 kts | 250° |
| 2026-05-07 10:07 | 50.03939 | 8.54660 | 367 ft | 26 kts | 249° |
| 2026-05-07 10:07 | 50.03872 | 8.54403 | 369 ft | 26 kts | 242° |
| 2026-05-07 10:08 | 50.03788 | 8.54160 | 373 ft | 25 kts | 243° |
| 2026-05-07 10:08 | 50.03723 | 8.53908 | 373 ft | 26 kts | 249° |
| 2026-05-07 10:08 | 50.03658 | 8.53638 | 368 ft | 28 kts | 250° |
| 2026-05-07 10:08 | 50.03594 | 8.53364 | 371 ft | 27 kts | 250° |
| 2026-05-07 10:09 | 50.03530 | 8.53087 | 373 ft | 27 kts | 250° |
| 2026-05-07 10:09 | 50.03476 | 8.52884 | 380 ft | 17 kts | 248° |
| 2026-05-07 10:09 | 50.03437 | 8.52731 | 385 ft | 14 kts | 248° |
| 2026-05-07 10:09 | 50.03371 | 8.52607 | 383 ft | 17 kts | 204° |
| 2026-05-07 10:10 | 50.03327 | 8.52596 | 381 ft | 0 kts | 183° |
| 2026-05-07 10:10 | 50.03236 | 8.52589 | 378 ft | 48 kts | 181° |
| 2026-05-07 10:10 | 50.02557 | 8.52598 | 375 ft | 142 kts | 180° |
| 2026-05-07 10:10 | 50.01404 | 8.52598 | 671 ft | 179 kts | 181° |
| 2026-05-07 10:11 | 50.00098 | 8.52652 | 1242 ft | 200 kts | 179° |
| 2026-05-07 10:11 | 49.98667 | 8.52772 | 1997 ft | 210 kts | 177° |
| 2026-05-07 10:11 | 49.97161 | 8.52957 | 2740 ft | 226 kts | 176° |
| 2026-05-07 10:11 | 49.95530 | 8.53125 | 3290 ft | 246 kts | 177° |
| 2026-05-07 10:12 | 49.93817 | 8.53253 | 3774 ft | 241 kts | 178° |
| 2026-05-07 10:12 | 49.92146 | 8.53338 | 4090 ft | 239 kts | 179° |
| 2026-05-07 10:12 | 49.90473 | 8.53386 | 4426 ft | 240 kts | 181° |
| 2026-05-07 10:12 | 49.88784 | 8.53423 | 4857 ft | 246 kts | 179° |
| 2026-05-07 10:13 | 49.87087 | 8.53530 | 5827 ft | 245 kts | 178° |
| 2026-05-07 10:13 | 49.85372 | 8.53656 | 6785 ft | 250 kts | 178° |
| 2026-05-07 10:13 | 49.83628 | 8.53790 | 7714 ft | 251 kts | 179° |
| 2026-05-07 10:13 | 49.81879 | 8.53919 | 8644 ft | 253 kts | 180° |
| 2026-05-07 10:14 | 49.80145 | 8.54040 | 9562 ft | 255 kts | 180° |
| 2026-05-07 10:14 | 49.78385 | 8.54153 | 10406 ft | 257 kts | 181° |
| 2026-05-07 10:14 | 49.76580 | 8.53996 | 11092 ft | 265 kts | 188° |
| 2026-05-07 10:14 | 49.74670 | 8.53710 | 11431 ft | 288 kts | 188° |
| 2026-05-07 10:15 | 49.72594 | 8.53409 | 11725 ft | 311 kts | 187° |
| 2026-05-07 10:15 | 49.70363 | 8.53102 | 11956 ft | 334 kts | 187° |
| 2026-05-07 10:15 | 49.68077 | 8.52798 | 12356 ft | 348 kts | 186° |
| 2026-05-07 10:15 | 49.65640 | 8.52481 | 13107 ft | 352 kts | 186° |
| 2026-05-07 10:16 | 49.64029 | 8.52271 | 13625 ft | 353 kts | 186° |
| 2026-05-07 10:16 | 49.61558 | 8.51946 | 14294 ft | 357 kts | 186° |
| 2026-05-07 10:16 | 49.59058 | 8.51622 | 14928 ft | 362 kts | 186° |